sensor_id;sensor_type;location;lat;lon;timestamp;P1;durP1;ratioP1;P2;durP2;ratioP2
23394;SDS011;11870;53.084;18.206;2023-03-01T00:01:29;61.92;;;20.85;;
23394;SDS011;11870;53.084;18.206;2023-03-01T00:03:56;63.13;;;20.83;;
23394;SDS011;11870;53.084;18.206;2023-03-01T00:06:23;56.63;;;19.33;;
23394;SDS011;11870;53.084;18.206;2023-03-01T00:08:50;48.00;;;17.63;;
23394;SDS011;11870;53.084;18.206;2023-03-01T00:11:21;56.40;;;18.77;;
23394;SDS011;11870;53.084;18.206;2023-03-01T00:13:49;62.88;;;20.70;;
23394;SDS011;11870;53.084;18.206;2023-03-01T00:16:22;51.10;;;18.05;;
23394;SDS011;11870;53.084;18.206;2023-03-01T00:18:53;57.08;;;19.08;;
23394;SDS011;11870;53.084;18.206;2023-03-01T00:21:23;92.05;;;26.92;;
23394;SDS011;11870;53.084;18.206;2023-03-01T00:23:49;141.25;;;38.08;;
23394;SDS011;11870;53.084;18.206;2023-03-01T00:26:16;116.95;;;34.33;;
23394;SDS011;11870;53.084;18.206;2023-03-01T00:28:43;97.40;;;28.20;;
23394;SDS011;11870;53.084;18.206;2023-03-01T00:31:11;87.47;;;25.35;;
23394;SDS011;11870;53.084;18.206;2023-03-01T00:33:42;66.78;;;22.73;;
23394;SDS011;11870;53.084;18.206;2023-03-01T00:36:10;84.50;;;24.98;;
23394;SDS011;11870;53.084;18.206;2023-03-01T00:38:37;95.10;;;28.85;;
23394;SDS011;11870;53.084;18.206;2023-03-01T00:41:08;86.30;;;28.98;;
23394;SDS011;11870;53.084;18.206;2023-03-01T00:43:35;102.10;;;30.65;;
23394;SDS011;11870;53.084;18.206;2023-03-01T00:46:09;85.20;;;26.98;;
23394;SDS011;11870;53.084;18.206;2023-03-01T00:48:40;91.82;;;27.77;;
23394;SDS011;11870;53.084;18.206;2023-03-01T00:51:07;89.03;;;27.13;;
23394;SDS011;11870;53.084;18.206;2023-03-01T00:53:38;77.65;;;22.38;;
23394;SDS011;11870;53.084;18.206;2023-03-01T00:56:06;76.35;;;23.45;;
23394;SDS011;11870;53.084;18.206;2023-03-01T00:58:32;74.50;;;22.65;;
23394;SDS011;11870;53.084;18.206;2023-03-01T01:00:59;87.45;;;26.27;;
23394;SDS011;11870;53.084;18.206;2023-03-01T01:03:25;72.97;;;24.73;;
23394;SDS011;11870;53.084;18.206;2023-03-01T01:05:52;71.07;;;22.85;;
23394;SDS011;11870;53.084;18.206;2023-03-01T01:08:19;57.17;;;19.30;;
23394;SDS011;11870;53.084;18.206;2023-03-01T01:10:46;55.00;;;18.30;;
23394;SDS011;11870;53.084;18.206;2023-03-01T01:13:12;63.80;;;19.48;;
23394;SDS011;11870;53.084;18.206;2023-03-01T01:15:38;50.90;;;18.35;;
23394;SDS011;11870;53.084;18.206;2023-03-01T01:18:05;54.72;;;18.88;;
23394;SDS011;11870;53.084;18.206;2023-03-01T01:20:31;52.67;;;17.70;;
23394;SDS011;11870;53.084;18.206;2023-03-01T01:22:58;51.22;;;19.00;;
23394;SDS011;11870;53.084;18.206;2023-03-01T01:25:24;51.15;;;17.73;;
23394;SDS011;11870;53.084;18.206;2023-03-01T01:27:52;45.53;;;17.10;;
23394;SDS011;11870;53.084;18.206;2023-03-01T01:30:18;49.88;;;17.63;;
23394;SDS011;11870;53.084;18.206;2023-03-01T01:32:44;49.55;;;17.42;;
23394;SDS011;11870;53.084;18.206;2023-03-01T01:35:10;59.05;;;20.25;;
23394;SDS011;11870;53.084;18.206;2023-03-01T01:37:36;53.60;;;19.98;;
23394;SDS011;11870;53.084;18.206;2023-03-01T01:40:02;47.28;;;17.42;;
23394;SDS011;11870;53.084;18.206;2023-03-01T01:42:31;46.58;;;17.52;;
23394;SDS011;11870;53.084;18.206;2023-03-01T01:48:00;48.72;;;17.95;;
23394;SDS011;11870;53.084;18.206;2023-03-01T01:50:38;62.25;;;18.67;;
23394;SDS011;11870;53.084;18.206;2023-03-01T01:53:15;48.55;;;17.90;;
23394;SDS011;11870;53.084;18.206;2023-03-01T01:55:49;43.28;;;15.93;;
23394;SDS011;11870;53.084;18.206;2023-03-01T01:58:20;44.88;;;16.60;;
23394;SDS011;11870;53.084;18.206;2023-03-01T02:00:47;47.67;;;17.45;;
23394;SDS011;11870;53.084;18.206;2023-03-01T02:03:14;79.35;;;29.23;;
23394;SDS011;11870;53.084;18.206;2023-03-01T02:08:20;48.60;;;17.80;;
23394;SDS011;11870;53.084;18.206;2023-03-01T02:10:49;43.17;;;17.17;;
23394;SDS011;11870;53.084;18.206;2023-03-01T02:13:17;49.72;;;17.30;;
23394;SDS011;11870;53.084;18.206;2023-03-01T02:15:43;47.85;;;16.60;;
23394;SDS011;11870;53.084;18.206;2023-03-01T02:18:09;46.88;;;16.88;;
23394;SDS011;11870;53.084;18.206;2023-03-01T02:23:07;47.75;;;16.73;;
23394;SDS011;11870;53.084;18.206;2023-03-01T02:28:22;44.75;;;16.77;;
23394;SDS011;11870;53.084;18.206;2023-03-01T02:30:50;48.30;;;16.85;;
23394;SDS011;11870;53.084;18.206;2023-03-01T02:33:35;45.92;;;15.57;;
23394;SDS011;11870;53.084;18.206;2023-03-01T02:36:04;46.95;;;15.88;;
23394;SDS011;11870;53.084;18.206;2023-03-01T02:38:33;39.03;;;15.65;;
23394;SDS011;11870;53.084;18.206;2023-03-01T02:40:59;49.72;;;17.73;;
23394;SDS011;11870;53.084;18.206;2023-03-01T02:43:29;43.47;;;15.00;;
23394;SDS011;11870;53.084;18.206;2023-03-01T02:45:59;53.42;;;19.45;;
23394;SDS011;11870;53.084;18.206;2023-03-01T02:48:43;51.63;;;19.13;;
23394;SDS011;11870;53.084;18.206;2023-03-01T02:53:48;57.22;;;18.73;;
23394;SDS011;11870;53.084;18.206;2023-03-01T02:56:27;57.97;;;18.55;;
23394;SDS011;11870;53.084;18.206;2023-03-01T02:58:54;45.90;;;17.70;;
23394;SDS011;11870;53.084;18.206;2023-03-01T03:01:26;54.22;;;17.75;;
23394;SDS011;11870;53.084;18.206;2023-03-01T03:04:07;52.97;;;18.73;;
23394;SDS011;11870;53.084;18.206;2023-03-01T03:06:35;54.45;;;19.83;;
23394;SDS011;11870;53.084;18.206;2023-03-01T03:09:02;56.33;;;20.75;;
23394;SDS011;11870;53.084;18.206;2023-03-01T03:11:29;55.65;;;21.50;;
23394;SDS011;11870;53.084;18.206;2023-03-01T03:13:55;61.05;;;21.33;;
23394;SDS011;11870;53.084;18.206;2023-03-01T03:16:23;48.90;;;19.05;;
23394;SDS011;11870;53.084;18.206;2023-03-01T03:18:50;46.17;;;17.60;;
23394;SDS011;11870;53.084;18.206;2023-03-01T03:21:16;50.28;;;19.80;;
23394;SDS011;11870;53.084;18.206;2023-03-01T03:23:42;43.25;;;17.70;;
23394;SDS011;11870;53.084;18.206;2023-03-01T03:26:09;43.97;;;17.52;;
23394;SDS011;11870;53.084;18.206;2023-03-01T03:28:38;49.70;;;18.75;;
23394;SDS011;11870;53.084;18.206;2023-03-01T03:31:06;38.72;;;15.13;;
23394;SDS011;11870;53.084;18.206;2023-03-01T03:33:32;38.92;;;14.18;;
23394;SDS011;11870;53.084;18.206;2023-03-01T03:35:58;48.05;;;15.68;;
23394;SDS011;11870;53.084;18.206;2023-03-01T03:38:24;39.10;;;14.43;;
23394;SDS011;11870;53.084;18.206;2023-03-01T03:41:01;34.83;;;14.25;;
23394;SDS011;11870;53.084;18.206;2023-03-01T03:43:29;44.72;;;15.85;;
23394;SDS011;11870;53.084;18.206;2023-03-01T03:45:56;32.85;;;13.65;;
23394;SDS011;11870;53.084;18.206;2023-03-01T03:48:22;35.08;;;13.45;;
23394;SDS011;11870;53.084;18.206;2023-03-01T03:50:49;37.58;;;13.82;;
23394;SDS011;11870;53.084;18.206;2023-03-01T03:53:17;33.22;;;13.93;;
23394;SDS011;11870;53.084;18.206;2023-03-01T03:55:45;34.85;;;13.63;;
23394;SDS011;11870;53.084;18.206;2023-03-01T03:58:14;37.28;;;13.35;;
23394;SDS011;11870;53.084;18.206;2023-03-01T04:00:42;41.63;;;14.75;;
23394;SDS011;11870;53.084;18.206;2023-03-01T04:03:10;38.95;;;14.18;;
23394;SDS011;11870;53.084;18.206;2023-03-01T04:05:38;37.45;;;13.82;;
23394;SDS011;11870;53.084;18.206;2023-03-01T04:08:04;36.15;;;13.27;;
23394;SDS011;11870;53.084;18.206;2023-03-01T04:10:36;38.78;;;13.63;;
23394;SDS011;11870;53.084;18.206;2023-03-01T04:13:04;38.70;;;13.75;;
23394;SDS011;11870;53.084;18.206;2023-03-01T04:15:32;36.83;;;13.25;;
23394;SDS011;11870;53.084;18.206;2023-03-01T04:17:59;38.58;;;13.65;;
23394;SDS011;11870;53.084;18.206;2023-03-01T04:20:26;33.85;;;13.85;;
23394;SDS011;11870;53.084;18.206;2023-03-01T04:23:13;44.00;;;15.65;;
23394;SDS011;11870;53.084;18.206;2023-03-01T04:25:47;43.38;;;15.82;;
23394;SDS011;11870;53.084;18.206;2023-03-01T04:28:23;37.70;;;14.52;;
23394;SDS011;11870;53.084;18.206;2023-03-01T04:30:55;53.00;;;20.65;;
23394;SDS011;11870;53.084;18.206;2023-03-01T04:33:22;39.42;;;16.50;;
23394;SDS011;11870;53.084;18.206;2023-03-01T04:35:48;44.00;;;15.57;;
23394;SDS011;11870;53.084;18.206;2023-03-01T04:38:15;37.47;;;15.60;;
23394;SDS011;11870;53.084;18.206;2023-03-01T04:40:42;37.95;;;14.95;;
23394;SDS011;11870;53.084;18.206;2023-03-01T04:43:08;33.05;;;14.10;;
23394;SDS011;11870;53.084;18.206;2023-03-01T04:45:36;39.42;;;14.43;;
23394;SDS011;11870;53.084;18.206;2023-03-01T04:48:02;44.25;;;15.23;;
23394;SDS011;11870;53.084;18.206;2023-03-01T04:50:28;46.13;;;17.75;;
23394;SDS011;11870;53.084;18.206;2023-03-01T04:52:54;58.08;;;20.63;;
23394;SDS011;11870;53.084;18.206;2023-03-01T04:55:27;70.38;;;23.75;;
23394;SDS011;11870;53.084;18.206;2023-03-01T04:57:53;65.45;;;22.42;;
23394;SDS011;11870;53.084;18.206;2023-03-01T05:00:20;81.88;;;25.70;;
23394;SDS011;11870;53.084;18.206;2023-03-01T05:02:54;66.95;;;22.95;;
23394;SDS011;11870;53.084;18.206;2023-03-01T05:05:33;59.97;;;20.65;;
23394;SDS011;11870;53.084;18.206;2023-03-01T05:08:02;57.00;;;19.02;;
23394;SDS011;11870;53.084;18.206;2023-03-01T05:10:31;46.63;;;16.65;;
23394;SDS011;11870;53.084;18.206;2023-03-01T05:12:58;41.38;;;15.38;;
23394;SDS011;11870;53.084;18.206;2023-03-01T05:15:25;39.65;;;14.73;;
23394;SDS011;11870;53.084;18.206;2023-03-01T05:17:53;52.08;;;16.13;;
23394;SDS011;11870;53.084;18.206;2023-03-01T05:20:21;41.85;;;15.48;;
23394;SDS011;11870;53.084;18.206;2023-03-01T05:22:50;38.83;;;14.57;;
23394;SDS011;11870;53.084;18.206;2023-03-01T05:25:21;39.90;;;15.77;;
23394;SDS011;11870;53.084;18.206;2023-03-01T05:27:47;37.95;;;15.90;;
23394;SDS011;11870;53.084;18.206;2023-03-01T05:30:13;41.53;;;15.48;;
23394;SDS011;11870;53.084;18.206;2023-03-01T05:32:40;35.08;;;15.20;;
23394;SDS011;11870;53.084;18.206;2023-03-01T05:35:09;40.03;;;14.95;;
23394;SDS011;11870;53.084;18.206;2023-03-01T05:37:42;38.33;;;14.93;;
23394;SDS011;11870;53.084;18.206;2023-03-01T05:40:13;40.33;;;14.63;;
23394;SDS011;11870;53.084;18.206;2023-03-01T05:42:44;37.22;;;14.50;;
23394;SDS011;11870;53.084;18.206;2023-03-01T05:45:12;39.75;;;14.38;;
23394;SDS011;11870;53.084;18.206;2023-03-01T05:47:40;40.47;;;13.73;;
23394;SDS011;11870;53.084;18.206;2023-03-01T05:50:13;35.20;;;14.18;;
23394;SDS011;11870;53.084;18.206;2023-03-01T05:52:43;35.50;;;14.32;;
23394;SDS011;11870;53.084;18.206;2023-03-01T05:55:17;38.08;;;14.73;;
23394;SDS011;11870;53.084;18.206;2023-03-01T05:57:45;46.65;;;16.65;;
23394;SDS011;11870;53.084;18.206;2023-03-01T06:00:11;39.97;;;15.48;;
23394;SDS011;11870;53.084;18.206;2023-03-01T06:02:39;40.17;;;15.27;;
23394;SDS011;11870;53.084;18.206;2023-03-01T06:05:06;40.20;;;16.27;;
23394;SDS011;11870;53.084;18.206;2023-03-01T06:07:33;39.25;;;16.10;;
23394;SDS011;11870;53.084;18.206;2023-03-01T06:10:00;39.75;;;15.73;;
23394;SDS011;11870;53.084;18.206;2023-03-01T06:12:29;44.78;;;15.90;;
23394;SDS011;11870;53.084;18.206;2023-03-01T06:14:57;34.80;;;15.07;;
23394;SDS011;11870;53.084;18.206;2023-03-01T06:17:23;37.30;;;15.95;;
23394;SDS011;11870;53.084;18.206;2023-03-01T06:19:49;41.10;;;16.63;;
23394;SDS011;11870;53.084;18.206;2023-03-01T06:22:14;39.45;;;16.83;;
23394;SDS011;11870;53.084;18.206;2023-03-01T06:24:41;41.75;;;16.50;;
23394;SDS011;11870;53.084;18.206;2023-03-01T06:27:06;42.95;;;16.70;;
23394;SDS011;11870;53.084;18.206;2023-03-01T06:29:32;44.00;;;17.27;;
23394;SDS011;11870;53.084;18.206;2023-03-01T06:31:58;46.35;;;17.45;;
23394;SDS011;11870;53.084;18.206;2023-03-01T06:34:24;41.58;;;17.38;;
23394;SDS011;11870;53.084;18.206;2023-03-01T06:36:50;36.78;;;16.92;;
23394;SDS011;11870;53.084;18.206;2023-03-01T06:39:16;43.00;;;18.33;;
23394;SDS011;11870;53.084;18.206;2023-03-01T06:41:43;40.75;;;17.88;;
23394;SDS011;11870;53.084;18.206;2023-03-01T06:44:09;45.15;;;18.40;;
23394;SDS011;11870;53.084;18.206;2023-03-01T06:46:35;43.55;;;19.95;;
23394;SDS011;11870;53.084;18.206;2023-03-01T06:49:01;42.88;;;19.77;;
23394;SDS011;11870;53.084;18.206;2023-03-01T06:51:32;39.95;;;17.40;;
23394;SDS011;11870;53.084;18.206;2023-03-01T06:53:58;37.20;;;18.00;;
23394;SDS011;11870;53.084;18.206;2023-03-01T06:56:24;43.15;;;18.67;;
23394;SDS011;11870;53.084;18.206;2023-03-01T06:58:50;38.95;;;17.50;;
23394;SDS011;11870;53.084;18.206;2023-03-01T07:01:16;35.90;;;16.15;;
23394;SDS011;11870;53.084;18.206;2023-03-01T07:03:42;36.83;;;15.43;;
23394;SDS011;11870;53.084;18.206;2023-03-01T07:06:09;31.60;;;14.10;;
23394;SDS011;11870;53.084;18.206;2023-03-01T07:08:35;32.72;;;14.63;;
23394;SDS011;11870;53.084;18.206;2023-03-01T07:11:01;29.77;;;13.88;;
23394;SDS011;11870;53.084;18.206;2023-03-01T07:13:28;29.42;;;14.43;;
23394;SDS011;11870;53.084;18.206;2023-03-01T07:15:55;28.15;;;13.77;;
23394;SDS011;11870;53.084;18.206;2023-03-01T07:18:21;29.00;;;14.52;;
23394;SDS011;11870;53.084;18.206;2023-03-01T07:20:47;29.45;;;13.50;;
23394;SDS011;11870;53.084;18.206;2023-03-01T07:23:13;27.55;;;13.40;;
23394;SDS011;11870;53.084;18.206;2023-03-01T07:25:39;28.95;;;13.48;;
23394;SDS011;11870;53.084;18.206;2023-03-01T07:28:05;27.88;;;14.40;;
23394;SDS011;11870;53.084;18.206;2023-03-01T07:30:31;30.67;;;13.80;;
23394;SDS011;11870;53.084;18.206;2023-03-01T07:32:57;28.67;;;14.00;;
23394;SDS011;11870;53.084;18.206;2023-03-01T07:35:24;28.70;;;13.73;;
23394;SDS011;11870;53.084;18.206;2023-03-01T07:37:52;26.25;;;13.68;;
23394;SDS011;11870;53.084;18.206;2023-03-01T07:40:18;23.55;;;11.93;;
23394;SDS011;11870;53.084;18.206;2023-03-01T07:42:44;24.23;;;12.82;;
23394;SDS011;11870;53.084;18.206;2023-03-01T07:45:11;21.05;;;11.68;;
23394;SDS011;11870;53.084;18.206;2023-03-01T07:47:39;22.27;;;11.75;;
23394;SDS011;11870;53.084;18.206;2023-03-01T07:50:05;21.25;;;11.23;;
23394;SDS011;11870;53.084;18.206;2023-03-01T07:52:31;22.80;;;11.77;;
23394;SDS011;11870;53.084;18.206;2023-03-01T07:54:57;22.88;;;13.07;;
23394;SDS011;11870;53.084;18.206;2023-03-01T07:57:23;27.58;;;15.57;;
23394;SDS011;11870;53.084;18.206;2023-03-01T07:59:49;24.92;;;13.30;;
23394;SDS011;11870;53.084;18.206;2023-03-01T08:02:15;23.58;;;12.32;;
23394;SDS011;11870;53.084;18.206;2023-03-01T08:04:41;25.13;;;15.32;;
23394;SDS011;11870;53.084;18.206;2023-03-01T08:07:08;26.30;;;14.50;;
23394;SDS011;11870;53.084;18.206;2023-03-01T08:09:34;20.75;;;11.88;;
23394;SDS011;11870;53.084;18.206;2023-03-01T08:12:02;20.65;;;11.73;;
23394;SDS011;11870;53.084;18.206;2023-03-01T08:14:29;23.70;;;13.32;;
23394;SDS011;11870;53.084;18.206;2023-03-01T08:16:57;21.95;;;12.35;;
23394;SDS011;11870;53.084;18.206;2023-03-01T08:19:23;22.70;;;12.02;;
23394;SDS011;11870;53.084;18.206;2023-03-01T08:21:49;23.52;;;11.80;;
23394;SDS011;11870;53.084;18.206;2023-03-01T08:24:15;22.42;;;12.02;;
23394;SDS011;11870;53.084;18.206;2023-03-01T08:26:41;19.30;;;12.25;;
23394;SDS011;11870;53.084;18.206;2023-03-01T08:29:07;19.67;;;11.23;;
23394;SDS011;11870;53.084;18.206;2023-03-01T08:31:34;23.52;;;12.13;;
23394;SDS011;11870;53.084;18.206;2023-03-01T08:34:04;21.52;;;12.60;;
23394;SDS011;11870;53.084;18.206;2023-03-01T08:36:34;21.23;;;12.38;;
23394;SDS011;11870;53.084;18.206;2023-03-01T08:39:02;20.42;;;12.85;;
23394;SDS011;11870;53.084;18.206;2023-03-01T08:41:29;24.05;;;13.57;;
23394;SDS011;11870;53.084;18.206;2023-03-01T08:43:55;24.75;;;15.98;;
23394;SDS011;11870;53.084;18.206;2023-03-01T08:46:27;23.88;;;14.27;;
23394;SDS011;11870;53.084;18.206;2023-03-01T08:48:58;23.85;;;12.98;;
23394;SDS011;11870;53.084;18.206;2023-03-01T08:51:24;23.08;;;13.48;;
23394;SDS011;11870;53.084;18.206;2023-03-01T08:53:51;23.35;;;12.10;;
23394;SDS011;11870;53.084;18.206;2023-03-01T08:56:18;20.58;;;12.52;;
23394;SDS011;11870;53.084;18.206;2023-03-01T08:58:48;21.88;;;13.32;;
23394;SDS011;11870;53.084;18.206;2023-03-01T09:01:16;23.05;;;13.55;;
23394;SDS011;11870;53.084;18.206;2023-03-01T09:03:44;23.75;;;13.57;;
23394;SDS011;11870;53.084;18.206;2023-03-01T09:06:10;24.05;;;13.80;;
23394;SDS011;11870;53.084;18.206;2023-03-01T09:08:38;18.73;;;12.85;;
23394;SDS011;11870;53.084;18.206;2023-03-01T09:11:06;20.55;;;12.73;;
23394;SDS011;11870;53.084;18.206;2023-03-01T09:13:33;22.65;;;13.20;;
23394;SDS011;11870;53.084;18.206;2023-03-01T09:16:01;25.25;;;13.73;;
23394;SDS011;11870;53.084;18.206;2023-03-01T09:18:28;21.30;;;13.77;;
23394;SDS011;11870;53.084;18.206;2023-03-01T09:21:11;20.92;;;12.63;;
23394;SDS011;11870;53.084;18.206;2023-03-01T09:23:44;25.48;;;13.70;;
23394;SDS011;11870;53.084;18.206;2023-03-01T09:26:13;23.30;;;13.88;;
23394;SDS011;11870;53.084;18.206;2023-03-01T09:28:47;22.85;;;14.75;;
23394;SDS011;11870;53.084;18.206;2023-03-01T09:31:16;27.23;;;14.98;;
23394;SDS011;11870;53.084;18.206;2023-03-01T09:33:45;28.58;;;16.98;;
23394;SDS011;11870;53.084;18.206;2023-03-01T09:36:14;26.60;;;16.83;;
23394;SDS011;11870;53.084;18.206;2023-03-01T09:38:46;28.50;;;16.02;;
23394;SDS011;11870;53.084;18.206;2023-03-01T09:46:58;26.83;;;16.80;;
23394;SDS011;11870;53.084;18.206;2023-03-01T09:49:25;26.48;;;15.18;;
23394;SDS011;11870;53.084;18.206;2023-03-01T09:51:57;24.27;;;14.13;;
23394;SDS011;11870;53.084;18.206;2023-03-01T09:54:44;27.25;;;16.73;;
23394;SDS011;11870;53.084;18.206;2023-03-01T09:57:33;25.77;;;15.73;;
23394;SDS011;11870;53.084;18.206;2023-03-01T10:02:57;22.02;;;14.10;;
23394;SDS011;11870;53.084;18.206;2023-03-01T10:08:42;26.10;;;17.05;;
23394;SDS011;11870;53.084;18.206;2023-03-01T10:11:22;22.90;;;14.18;;
23394;SDS011;11870;53.084;18.206;2023-03-01T10:13:58;21.25;;;13.70;;
23394;SDS011;11870;53.084;18.206;2023-03-01T10:16:41;20.23;;;13.90;;
23394;SDS011;11870;53.084;18.206;2023-03-01T10:19:11;21.73;;;14.25;;
23394;SDS011;11870;53.084;18.206;2023-03-01T10:21:46;18.08;;;12.65;;
23394;SDS011;11870;53.084;18.206;2023-03-01T10:24:14;22.08;;;13.18;;
23394;SDS011;11870;53.084;18.206;2023-03-01T10:26:47;25.27;;;13.63;;
23394;SDS011;11870;53.084;18.206;2023-03-01T10:29:19;21.13;;;13.48;;
23394;SDS011;11870;53.084;18.206;2023-03-01T10:32:08;18.98;;;13.02;;
23394;SDS011;11870;53.084;18.206;2023-03-01T10:34:36;18.50;;;12.18;;
23394;SDS011;11870;53.084;18.206;2023-03-01T10:37:35;19.48;;;12.02;;
23394;SDS011;11870;53.084;18.206;2023-03-01T10:40:08;21.50;;;12.48;;
23394;SDS011;11870;53.084;18.206;2023-03-01T10:42:36;18.98;;;11.68;;
23394;SDS011;11870;53.084;18.206;2023-03-01T10:50:34;16.60;;;10.75;;
23394;SDS011;11870;53.084;18.206;2023-03-01T10:53:02;18.25;;;11.45;;
23394;SDS011;11870;53.084;18.206;2023-03-01T10:55:36;21.42;;;11.10;;
23394;SDS011;11870;53.084;18.206;2023-03-01T11:00:45;17.50;;;10.10;;
23394;SDS011;11870;53.084;18.206;2023-03-01T11:03:23;18.50;;;9.93;;
23394;SDS011;11870;53.084;18.206;2023-03-01T11:05:55;18.73;;;9.18;;
23394;SDS011;11870;53.084;18.206;2023-03-01T11:08:31;16.00;;;8.70;;
23394;SDS011;11870;53.084;18.206;2023-03-01T11:11:32;15.48;;;8.90;;
23394;SDS011;11870;53.084;18.206;2023-03-01T11:16:44;20.23;;;9.63;;
23394;SDS011;11870;53.084;18.206;2023-03-01T11:21:52;16.88;;;8.57;;
23394;SDS011;11870;53.084;18.206;2023-03-01T11:27:04;16.67;;;8.98;;
23394;SDS011;11870;53.084;18.206;2023-03-01T11:29:51;15.38;;;8.07;;
23394;SDS011;11870;53.084;18.206;2023-03-01T11:32:18;16.25;;;7.60;;
23394;SDS011;11870;53.084;18.206;2023-03-01T11:34:53;17.13;;;8.70;;
23394;SDS011;11870;53.084;18.206;2023-03-01T11:37:30;18.65;;;7.95;;
23394;SDS011;11870;53.084;18.206;2023-03-01T11:40:24;14.18;;;7.80;;
23394;SDS011;11870;53.084;18.206;2023-03-01T11:42:56;16.88;;;7.68;;
23394;SDS011;11870;53.084;18.206;2023-03-01T11:45:24;14.35;;;6.57;;
23394;SDS011;11870;53.084;18.206;2023-03-01T11:48:14;14.10;;;6.90;;
23394;SDS011;11870;53.084;18.206;2023-03-01T11:50:44;12.20;;;5.80;;
23394;SDS011;11870;53.084;18.206;2023-03-01T11:53:20;13.88;;;6.55;;
23394;SDS011;11870;53.084;18.206;2023-03-01T11:56:20;10.20;;;5.47;;
23394;SDS011;11870;53.084;18.206;2023-03-01T12:04:57;11.18;;;5.15;;
23394;SDS011;11870;53.084;18.206;2023-03-01T12:10:21;15.13;;;6.53;;
23394;SDS011;11870;53.084;18.206;2023-03-01T12:26:10;14.70;;;7.47;;
23394;SDS011;11870;53.084;18.206;2023-03-01T12:28:55;15.93;;;7.90;;
23394;SDS011;11870;53.084;18.206;2023-03-01T12:31:30;15.88;;;7.80;;
23394;SDS011;11870;53.084;18.206;2023-03-01T12:34:03;16.40;;;7.30;;
23394;SDS011;11870;53.084;18.206;2023-03-01T12:36:52;17.55;;;7.72;;
23394;SDS011;11870;53.084;18.206;2023-03-01T12:39:43;12.48;;;6.68;;
23394;SDS011;11870;53.084;18.206;2023-03-01T12:51:00;14.20;;;6.78;;
23394;SDS011;11870;53.084;18.206;2023-03-01T12:53:31;13.10;;;6.03;;
23394;SDS011;11870;53.084;18.206;2023-03-01T12:56:08;14.32;;;6.60;;
23394;SDS011;11870;53.084;18.206;2023-03-01T12:58:42;10.95;;;5.90;;
23394;SDS011;11870;53.084;18.206;2023-03-01T13:07:40;14.05;;;6.30;;
23394;SDS011;11870;53.084;18.206;2023-03-01T13:12:52;13.00;;;6.43;;
23394;SDS011;11870;53.084;18.206;2023-03-01T13:15:32;13.52;;;6.75;;
23394;SDS011;11870;53.084;18.206;2023-03-01T13:28:49;16.48;;;7.30;;
23394;SDS011;11870;53.084;18.206;2023-03-01T13:33:46;15.77;;;7.13;;
23394;SDS011;11870;53.084;18.206;2023-03-01T13:47:34;15.13;;;7.32;;
23394;SDS011;11870;53.084;18.206;2023-03-01T13:49:44;15.43;;;6.85;;
23394;SDS011;11870;53.084;18.206;2023-03-01T13:57:41;17.83;;;7.78;;
23394;SDS011;11870;53.084;18.206;2023-03-01T14:03:01;14.52;;;6.88;;
23394;SDS011;11870;53.084;18.206;2023-03-01T14:05:30;17.23;;;7.07;;
23394;SDS011;11870;53.084;18.206;2023-03-01T14:07:57;13.63;;;6.38;;
23394;SDS011;11870;53.084;18.206;2023-03-01T14:10:24;16.40;;;7.38;;
23394;SDS011;11870;53.084;18.206;2023-03-01T14:15:34;14.25;;;7.03;;
23394;SDS011;11870;53.084;18.206;2023-03-01T14:20:45;16.30;;;7.20;;
23394;SDS011;11870;53.084;18.206;2023-03-01T14:23:23;18.92;;;7.90;;
23394;SDS011;11870;53.084;18.206;2023-03-01T14:25:54;15.65;;;7.15;;
23394;SDS011;11870;53.084;18.206;2023-03-01T14:28:31;18.65;;;10.07;;
23394;SDS011;11870;53.084;18.206;2023-03-01T14:31:00;19.75;;;9.32;;
23394;SDS011;11870;53.084;18.206;2023-03-01T14:33:28;16.45;;;8.43;;
23394;SDS011;11870;53.084;18.206;2023-03-01T14:38:29;14.93;;;6.93;;
23394;SDS011;11870;53.084;18.206;2023-03-01T14:40:57;13.95;;;6.97;;
23394;SDS011;11870;53.084;18.206;2023-03-01T14:43:27;14.38;;;7.85;;
23394;SDS011;11870;53.084;18.206;2023-03-01T14:45:54;16.08;;;7.63;;
23394;SDS011;11870;53.084;18.206;2023-03-01T14:48:21;17.30;;;7.72;;
23394;SDS011;11870;53.084;18.206;2023-03-01T14:50:48;16.25;;;8.32;;
23394;SDS011;11870;53.084;18.206;2023-03-01T14:53:16;18.17;;;8.98;;
23394;SDS011;11870;53.084;18.206;2023-03-01T14:55:46;21.83;;;9.15;;
23394;SDS011;11870;53.084;18.206;2023-03-01T14:58:25;18.20;;;8.20;;
23394;SDS011;11870;53.084;18.206;2023-03-01T15:00:55;15.25;;;7.82;;
23394;SDS011;11870;53.084;18.206;2023-03-01T15:03:25;20.42;;;7.32;;
23394;SDS011;11870;53.084;18.206;2023-03-01T15:06:06;16.27;;;7.45;;
23394;SDS011;11870;53.084;18.206;2023-03-01T15:08:34;19.30;;;8.20;;
23394;SDS011;11870;53.084;18.206;2023-03-01T15:11:23;16.48;;;7.22;;
23394;SDS011;11870;53.084;18.206;2023-03-01T15:13:50;17.90;;;8.20;;
23394;SDS011;11870;53.084;18.206;2023-03-01T15:16:30;19.25;;;7.40;;
23394;SDS011;11870;53.084;18.206;2023-03-01T15:19:02;14.90;;;7.43;;
23394;SDS011;11870;53.084;18.206;2023-03-01T15:21:33;19.15;;;8.15;;
23394;SDS011;11870;53.084;18.206;2023-03-01T15:24:06;15.73;;;8.02;;
23394;SDS011;11870;53.084;18.206;2023-03-01T15:27:04;12.60;;;6.95;;
23394;SDS011;11870;53.084;18.206;2023-03-01T15:29:33;17.35;;;7.35;;
23394;SDS011;11870;53.084;18.206;2023-03-01T15:32:20;14.30;;;7.00;;
23394;SDS011;11870;53.084;18.206;2023-03-01T15:34:59;20.15;;;7.93;;
23394;SDS011;11870;53.084;18.206;2023-03-01T15:37:46;15.60;;;7.07;;
23394;SDS011;11870;53.084;18.206;2023-03-01T15:40:25;16.48;;;7.95;;
23394;SDS011;11870;53.084;18.206;2023-03-01T15:42:59;18.40;;;7.32;;
23394;SDS011;11870;53.084;18.206;2023-03-01T15:45:26;15.23;;;7.18;;
23394;SDS011;11870;53.084;18.206;2023-03-01T15:47:54;15.68;;;7.47;;
23394;SDS011;11870;53.084;18.206;2023-03-01T15:50:32;16.02;;;8.27;;
23394;SDS011;11870;53.084;18.206;2023-03-01T15:53:04;12.35;;;6.60;;
23394;SDS011;11870;53.084;18.206;2023-03-01T15:55:37;15.38;;;7.35;;
23394;SDS011;11870;53.084;18.206;2023-03-01T15:58:04;13.50;;;7.15;;
23394;SDS011;11870;53.084;18.206;2023-03-01T16:00:35;15.68;;;7.22;;
23394;SDS011;11870;53.084;18.206;2023-03-01T16:03:00;19.25;;;8.93;;
23394;SDS011;11870;53.084;18.206;2023-03-01T16:05:28;17.65;;;8.77;;
23394;SDS011;11870;53.084;18.206;2023-03-01T16:07:55;16.95;;;8.60;;
23394;SDS011;11870;53.084;18.206;2023-03-01T16:10:22;26.35;;;10.30;;
23394;SDS011;11870;53.084;18.206;2023-03-01T16:12:49;19.30;;;10.20;;
23394;SDS011;11870;53.084;18.206;2023-03-01T16:15:22;18.95;;;8.52;;
23394;SDS011;11870;53.084;18.206;2023-03-01T16:17:49;16.33;;;8.63;;
23394;SDS011;11870;53.084;18.206;2023-03-01T16:20:16;21.10;;;8.55;;
23394;SDS011;11870;53.084;18.206;2023-03-01T16:22:42;14.57;;;7.57;;
23394;SDS011;11870;53.084;18.206;2023-03-01T16:25:10;16.23;;;7.57;;
23394;SDS011;11870;53.084;18.206;2023-03-01T16:27:38;22.58;;;9.38;;
23394;SDS011;11870;53.084;18.206;2023-03-01T16:30:05;29.38;;;11.13;;